sensor_id;sensor_type;location;lat;lon;timestamp;P1;durP1;ratioP1;P2;durP2;ratioP2
5878;SDS011;2965;42.640;23.370;2023-06-19T04:01:51;12.43;;;9.97;;
5878;SDS011;2965;42.640;23.370;2023-06-19T04:04:16;10.20;;;9.30;;
5878;SDS011;2965;42.640;23.370;2023-06-19T04:06:41;17.03;;;9.47;;
5878;SDS011;2965;42.640;23.370;2023-06-19T04:09:07;13.30;;;9.43;;
5878;SDS011;2965;42.640;23.370;2023-06-19T04:11:33;10.80;;;9.57;;
5878;SDS011;2965;42.640;23.370;2023-06-19T04:13:59;10.73;;;9.60;;
5878;SDS011;2965;42.640;23.370;2023-06-19T04:16:24;15.60;;;10.20;;
5878;SDS011;2965;42.640;23.370;2023-06-19T04:18:49;14.00;;;8.90;;
5878;SDS011;2965;42.640;23.370;2023-06-19T04:21:15;11.03;;;9.57;;
5878;SDS011;2965;42.640;23.370;2023-06-19T04:23:41;11.40;;;9.30;;
5878;SDS011;2965;42.640;23.370;2023-06-19T04:26:06;13.37;;;10.27;;
5878;SDS011;2965;42.640;23.370;2023-06-19T04:28:32;12.20;;;9.00;;
5878;SDS011;2965;42.640;23.370;2023-06-19T04:30:57;15.00;;;9.47;;
5878;SDS011;2965;42.640;23.370;2023-06-19T04:33:28;9.50;;;8.70;;
5878;SDS011;2965;42.640;23.370;2023-06-19T04:35:54;14.30;;;8.53;;
5878;SDS011;2965;42.640;23.370;2023-06-19T04:38:20;10.20;;;8.53;;
5878;SDS011;2965;42.640;23.370;2023-06-19T04:40:52;10.03;;;7.70;;
5878;SDS011;2965;42.640;23.370;2023-06-19T04:43:17;16.57;;;8.23;;
5878;SDS011;2965;42.640;23.370;2023-06-19T04:45:43;7.77;;;7.17;;
5878;SDS011;2965;42.640;23.370;2023-06-19T04:48:09;13.13;;;8.40;;
5878;SDS011;2965;42.640;23.370;2023-06-19T04:50:34;22.87;;;8.80;;
5878;SDS011;2965;42.640;23.370;2023-06-19T04:53:00;13.50;;;8.70;;
5878;SDS011;2965;42.640;23.370;2023-06-19T04:55:25;13.43;;;8.10;;
5878;SDS011;2965;42.640;23.370;2023-06-19T04:57:51;9.20;;;8.27;;
5878;SDS011;2965;42.640;23.370;2023-06-19T05:00:17;12.50;;;8.10;;
5878;SDS011;2965;42.640;23.370;2023-06-19T05:02:44;8.47;;;7.60;;
5878;SDS011;2965;42.640;23.370;2023-06-19T05:05:12;16.37;;;8.03;;
5878;SDS011;2965;42.640;23.370;2023-06-19T05:07:37;14.90;;;8.00;;
5878;SDS011;2965;42.640;23.370;2023-06-19T05:10:03;8.80;;;8.00;;
5878;SDS011;2965;42.640;23.370;2023-06-19T05:12:29;8.10;;;7.30;;
5878;SDS011;2965;42.640;23.370;2023-06-19T05:14:54;7.50;;;6.77;;
5878;SDS011;2965;42.640;23.370;2023-06-19T05:17:20;7.27;;;6.77;;
5878;SDS011;2965;42.640;23.370;2023-06-19T05:19:45;9.83;;;7.77;;
5878;SDS011;2965;42.640;23.370;2023-06-19T05:22:11;6.57;;;6.17;;
5878;SDS011;2965;42.640;23.370;2023-06-19T05:24:36;6.63;;;6.20;;
5878;SDS011;2965;42.640;23.370;2023-06-19T05:27:02;7.27;;;6.67;;
5878;SDS011;2965;42.640;23.370;2023-06-19T05:29:27;6.27;;;5.97;;
5878;SDS011;2965;42.640;23.370;2023-06-19T05:31:54;9.80;;;8.80;;
5878;SDS011;2965;42.640;23.370;2023-06-19T05:34:19;7.10;;;6.53;;
5878;SDS011;2965;42.640;23.370;2023-06-19T05:36:45;9.13;;;6.03;;
5878;SDS011;2965;42.640;23.370;2023-06-19T05:39:12;8.30;;;6.70;;
5878;SDS011;2965;42.640;23.370;2023-06-19T05:41:37;6.67;;;6.17;;
5878;SDS011;2965;42.640;23.370;2023-06-19T05:44:03;7.63;;;7.03;;
5878;SDS011;2965;42.640;23.370;2023-06-19T05:46:28;7.03;;;6.47;;
5878;SDS011;2965;42.640;23.370;2023-06-19T05:48:54;10.20;;;6.67;;
5878;SDS011;2965;42.640;23.370;2023-06-19T05:51:22;7.13;;;6.50;;
5878;SDS011;2965;42.640;23.370;2023-06-19T05:53:47;7.10;;;6.30;;
5878;SDS011;2965;42.640;23.370;2023-06-19T05:56:14;8.30;;;7.00;;
5878;SDS011;2965;42.640;23.370;2023-06-19T05:58:40;6.67;;;6.27;;
5878;SDS011;2965;42.640;23.370;2023-06-19T08:32:57;6.23;;;5.17;;
5878;SDS011;2965;42.640;23.370;2023-06-19T08:35:22;5.33;;;5.07;;
5878;SDS011;2965;42.640;23.370;2023-06-19T08:37:48;6.07;;;5.67;;
5878;SDS011;2965;42.640;23.370;2023-06-19T08:40:13;9.23;;;6.50;;
5878;SDS011;2965;42.640;23.370;2023-06-19T08:42:39;14.03;;;8.37;;
5878;SDS011;2965;42.640;23.370;2023-06-19T08:45:06;5.70;;;5.40;;
5878;SDS011;2965;42.640;23.370;2023-06-19T08:47:32;5.40;;;5.03;;
5878;SDS011;2965;42.640;23.370;2023-06-19T08:49:59;5.17;;;4.97;;
5878;SDS011;2965;42.640;23.370;2023-06-19T08:52:24;5.20;;;4.80;;
5878;SDS011;2965;42.640;23.370;2023-06-19T08:54:50;5.10;;;4.80;;
5878;SDS011;2965;42.640;23.370;2023-06-19T08:57:15;4.97;;;4.77;;
5878;SDS011;2965;42.640;23.370;2023-06-19T08:59:41;5.93;;;5.50;;
5878;SDS011;2965;42.640;23.370;2023-06-19T09:02:13;5.30;;;5.00;;
5878;SDS011;2965;42.640;23.370;2023-06-19T09:04:38;5.30;;;4.90;;
5878;SDS011;2965;42.640;23.370;2023-06-19T09:07:04;5.67;;;5.37;;
5878;SDS011;2965;42.640;23.370;2023-06-19T09:09:29;5.17;;;4.90;;
5878;SDS011;2965;42.640;23.370;2023-06-19T09:12:05;5.27;;;4.97;;
5878;SDS011;2965;42.640;23.370;2023-06-19T09:14:43;5.10;;;4.90;;
5878;SDS011;2965;42.640;23.370;2023-06-19T09:17:10;5.47;;;5.03;;
5878;SDS011;2965;42.640;23.370;2023-06-19T09:19:37;6.87;;;5.07;;
5878;SDS011;2965;42.640;23.370;2023-06-19T09:22:05;5.63;;;5.23;;
5878;SDS011;2965;42.640;23.370;2023-06-19T09:24:33;5.17;;;4.70;;
5878;SDS011;2965;42.640;23.370;2023-06-19T09:27:09;4.83;;;4.63;;
5878;SDS011;2965;42.640;23.370;2023-06-19T09:29:39;5.30;;;5.10;;
5878;SDS011;2965;42.640;23.370;2023-06-19T09:32:27;5.47;;;4.63;;
5878;SDS011;2965;42.640;23.370;2023-06-19T09:34:56;5.27;;;4.80;;
5878;SDS011;2965;42.640;23.370;2023-06-19T09:39:56;5.13;;;4.73;;
5878;SDS011;2965;42.640;23.370;2023-06-19T09:42:29;6.00;;;5.60;;
5878;SDS011;2965;42.640;23.370;2023-06-19T09:44:59;10.30;;;5.20;;
5878;SDS011;2965;42.640;23.370;2023-06-19T09:47:30;4.97;;;4.80;;
5878;SDS011;2965;42.640;23.370;2023-06-19T09:50:01;4.57;;;4.13;;
5878;SDS011;2965;42.640;23.370;2023-06-19T09:52:27;4.53;;;4.30;;
5878;SDS011;2965;42.640;23.370;2023-06-19T09:54:53;4.40;;;4.20;;
5878;SDS011;2965;42.640;23.370;2023-06-19T09:57:20;5.57;;;5.03;;
5878;SDS011;2965;42.640;23.370;2023-06-19T09:59:55;4.90;;;4.70;;
5878;SDS011;2965;42.640;23.370;2023-06-19T10:02:23;4.90;;;4.50;;
5878;SDS011;2965;42.640;23.370;2023-06-19T10:04:52;9.33;;;5.13;;
5878;SDS011;2965;42.640;23.370;2023-06-19T10:07:21;4.63;;;4.43;;
5878;SDS011;2965;42.640;23.370;2023-06-19T10:09:57;4.50;;;4.30;;
5878;SDS011;2965;42.640;23.370;2023-06-19T10:12:34;12.33;;;4.03;;
5878;SDS011;2965;42.640;23.370;2023-06-19T10:15:17;5.00;;;4.73;;
5878;SDS011;2965;42.640;23.370;2023-06-19T10:17:47;4.27;;;3.97;;
5878;SDS011;2965;42.640;23.370;2023-06-19T10:23:00;3.97;;;3.87;;
5878;SDS011;2965;42.640;23.370;2023-06-19T10:28:19;7.67;;;4.10;;
5878;SDS011;2965;42.640;23.370;2023-06-19T10:33:22;7.07;;;6.60;;
5878;SDS011;2965;42.640;23.370;2023-06-19T10:35:49;4.30;;;4.10;;
5878;SDS011;2965;42.640;23.370;2023-06-19T10:38:15;5.60;;;5.20;;
5878;SDS011;2965;42.640;23.370;2023-06-19T10:40:41;5.07;;;4.87;;
5878;SDS011;2965;42.640;23.370;2023-06-19T10:43:09;3.70;;;3.50;;
5878;SDS011;2965;42.640;23.370;2023-06-19T10:45:35;4.53;;;4.13;;
5878;SDS011;2965;42.640;23.370;2023-06-19T10:48:01;5.00;;;4.70;;
5878;SDS011;2965;42.640;23.370;2023-06-19T10:50:34;11.80;;;4.70;;
5878;SDS011;2965;42.640;23.370;2023-06-19T10:53:03;4.20;;;3.90;;
5878;SDS011;2965;42.640;23.370;2023-06-19T10:55:29;5.03;;;4.83;;
5878;SDS011;2965;42.640;23.370;2023-06-19T10:57:54;4.50;;;4.40;;
5878;SDS011;2965;42.640;23.370;2023-06-19T11:00:27;9.90;;;4.93;;
5878;SDS011;2965;42.640;23.370;2023-06-19T11:02:56;5.17;;;4.67;;
5878;SDS011;2965;42.640;23.370;2023-06-19T11:05:23;4.40;;;4.30;;
5878;SDS011;2965;42.640;23.370;2023-06-19T11:07:51;4.53;;;4.33;;
5878;SDS011;2965;42.640;23.370;2023-06-19T11:10:22;4.37;;;4.17;;
5878;SDS011;2965;42.640;23.370;2023-06-19T11:12:50;11.70;;;4.40;;
5878;SDS011;2965;42.640;23.370;2023-06-19T11:15:18;5.37;;;5.17;;
5878;SDS011;2965;42.640;23.370;2023-06-19T11:17:44;6.20;;;4.83;;
5878;SDS011;2965;42.640;23.370;2023-06-19T11:20:13;5.03;;;4.60;;
5878;SDS011;2965;42.640;23.370;2023-06-19T11:22:40;7.77;;;7.20;;
5878;SDS011;2965;42.640;23.370;2023-06-19T11:25:07;6.70;;;6.40;;
5878;SDS011;2965;42.640;23.370;2023-06-19T11:27:36;5.60;;;5.37;;
5878;SDS011;2965;42.640;23.370;2023-06-19T11:30:03;6.23;;;5.83;;
5878;SDS011;2965;42.640;23.370;2023-06-19T13:03:35;8.53;;;5.63;;
5878;SDS011;2965;42.640;23.370;2023-06-19T13:06:00;4.70;;;4.40;;
5878;SDS011;2965;42.640;23.370;2023-06-19T13:08:26;5.53;;;5.00;;
5878;SDS011;2965;42.640;23.370;2023-06-19T13:10:51;5.37;;;5.07;;
5878;SDS011;2965;42.640;23.370;2023-06-19T13:13:17;5.87;;;5.40;;
5878;SDS011;2965;42.640;23.370;2023-06-19T13:15:42;4.90;;;4.60;;
5878;SDS011;2965;42.640;23.370;2023-06-19T13:18:07;5.87;;;5.30;;
5878;SDS011;2965;42.640;23.370;2023-06-19T13:20:33;5.83;;;5.60;;
5878;SDS011;2965;42.640;23.370;2023-06-19T13:22:58;4.77;;;4.47;;
5878;SDS011;2965;42.640;23.370;2023-06-19T13:25:23;5.40;;;5.10;;
5878;SDS011;2965;42.640;23.370;2023-06-19T13:27:49;7.90;;;5.70;;
5878;SDS011;2965;42.640;23.370;2023-06-19T13:30:14;5.30;;;5.00;;
5878;SDS011;2965;42.640;23.370;2023-06-19T13:32:41;8.33;;;5.40;;
5878;SDS011;2965;42.640;23.370;2023-06-19T13:35:06;5.20;;;4.90;;
5878;SDS011;2965;42.640;23.370;2023-06-19T13:37:36;8.20;;;4.80;;
5878;SDS011;2965;42.640;23.370;2023-06-19T13:40:04;4.63;;;4.43;;
5878;SDS011;2965;42.640;23.370;2023-06-19T13:42:30;5.27;;;5.07;;
5878;SDS011;2965;42.640;23.370;2023-06-19T13:44:56;5.07;;;4.87;;
5878;SDS011;2965;42.640;23.370;2023-06-19T13:47:22;4.90;;;4.60;;
5878;SDS011;2965;42.640;23.370;2023-06-19T13:49:50;5.43;;;4.90;;
5878;SDS011;2965;42.640;23.370;2023-06-19T13:52:15;4.90;;;4.60;;
5878;SDS011;2965;42.640;23.370;2023-06-19T13:54:40;5.03;;;4.87;;
5878;SDS011;2965;42.640;23.370;2023-06-19T13:57:06;5.67;;;5.37;;
5878;SDS011;2965;42.640;23.370;2023-06-19T13:59:31;5.63;;;5.20;;
5878;SDS011;2965;42.640;23.370;2023-06-19T14:01:57;5.53;;;5.23;;
5878;SDS011;2965;42.640;23.370;2023-06-19T14:04:22;4.90;;;4.70;;
5878;SDS011;2965;42.640;23.370;2023-06-19T14:06:47;5.60;;;5.30;;
5878;SDS011;2965;42.640;23.370;2023-06-19T14:09:13;5.40;;;5.20;;
5878;SDS011;2965;42.640;23.370;2023-06-19T14:11:38;5.50;;;5.30;;
5878;SDS011;2965;42.640;23.370;2023-06-19T14:14:04;4.50;;;4.40;;
5878;SDS011;2965;42.640;23.370;2023-06-19T14:16:29;4.93;;;4.63;;
5878;SDS011;2965;42.640;23.370;2023-06-19T14:18:54;4.80;;;4.57;;
5878;SDS011;2965;42.640;23.370;2023-06-19T14:21:20;4.33;;;4.23;;
5878;SDS011;2965;42.640;23.370;2023-06-19T14:23:46;9.03;;;4.47;;
5878;SDS011;2965;42.640;23.370;2023-06-19T14:26:12;4.90;;;4.80;;
5878;SDS011;2965;42.640;23.370;2023-06-19T14:28:38;5.27;;;5.07;;
5878;SDS011;2965;42.640;23.370;2023-06-19T14:31:06;4.20;;;4.00;;
5878;SDS011;2965;42.640;23.370;2023-06-19T14:33:32;5.10;;;4.90;;
5878;SDS011;2965;42.640;23.370;2023-06-19T14:36:02;5.07;;;4.87;;
5878;SDS011;2965;42.640;23.370;2023-06-19T14:38:28;5.30;;;4.80;;
5878;SDS011;2965;42.640;23.370;2023-06-19T14:40:56;5.87;;;5.53;;
5878;SDS011;2965;42.640;23.370;2023-06-19T14:43:23;4.80;;;4.50;;
5878;SDS011;2965;42.640;23.370;2023-06-19T14:45:49;4.87;;;4.77;;
5878;SDS011;2965;42.640;23.370;2023-06-19T14:48:14;4.57;;;4.37;;
5878;SDS011;2965;42.640;23.370;2023-06-19T14:50:39;4.70;;;4.50;;
5878;SDS011;2965;42.640;23.370;2023-06-19T14:53:05;5.17;;;4.97;;
5878;SDS011;2965;42.640;23.370;2023-06-19T14:55:30;5.30;;;5.10;;
5878;SDS011;2965;42.640;23.370;2023-06-19T14:57:55;5.90;;;5.70;;
5878;SDS011;2965;42.640;23.370;2023-06-19T15:00:21;5.53;;;5.13;;
5878;SDS011;2965;42.640;23.370;2023-06-19T15:02:46;5.10;;;4.67;;
5878;SDS011;2965;42.640;23.370;2023-06-19T15:05:12;4.80;;;4.50;;
5878;SDS011;2965;42.640;23.370;2023-06-19T15:07:37;5.43;;;5.13;;
5878;SDS011;2965;42.640;23.370;2023-06-19T15:10:03;6.03;;;5.70;;
5878;SDS011;2965;42.640;23.370;2023-06-19T15:12:29;5.87;;;5.37;;
5878;SDS011;2965;42.640;23.370;2023-06-19T15:14:57;7.77;;;6.60;;
5878;SDS011;2965;42.640;23.370;2023-06-19T15:17:22;5.47;;;5.13;;
5878;SDS011;2965;42.640;23.370;2023-06-19T15:19:48;7.03;;;5.00;;
5878;SDS011;2965;42.640;23.370;2023-06-19T15:22:13;5.17;;;4.97;;
5878;SDS011;2965;42.640;23.370;2023-06-19T15:24:38;5.53;;;5.33;;
5878;SDS011;2965;42.640;23.370;2023-06-19T15:27:04;5.80;;;5.50;;
5878;SDS011;2965;42.640;23.370;2023-06-19T15:29:29;5.63;;;5.00;;
5878;SDS011;2965;42.640;23.370;2023-06-19T15:31:55;6.23;;;5.87;;
5878;SDS011;2965;42.640;23.370;2023-06-19T15:34:21;5.80;;;5.43;;
5878;SDS011;2965;42.640;23.370;2023-06-19T15:36:46;5.20;;;5.00;;
5878;SDS011;2965;42.640;23.370;2023-06-19T15:39:12;5.60;;;5.30;;
5878;SDS011;2965;42.640;23.370;2023-06-19T15:41:37;5.90;;;5.60;;
5878;SDS011;2965;42.640;23.370;2023-06-19T15:44:02;6.10;;;5.70;;
5878;SDS011;2965;42.640;23.370;2023-06-19T15:46:28;5.80;;;5.50;;
5878;SDS011;2965;42.640;23.370;2023-06-19T15:48:53;6.33;;;6.00;;
5878;SDS011;2965;42.640;23.370;2023-06-19T15:51:19;6.30;;;5.80;;
5878;SDS011;2965;42.640;23.370;2023-06-19T15:53:45;8.83;;;5.93;;
5878;SDS011;2965;42.640;23.370;2023-06-19T15:56:10;5.80;;;5.50;;
5878;SDS011;2965;42.640;23.370;2023-06-19T15:58:36;6.73;;;6.17;;
5878;SDS011;2965;42.640;23.370;2023-06-19T16:01:01;5.90;;;5.60;;
5878;SDS011;2965;42.640;23.370;2023-06-19T16:35:42;5.90;;;5.63;;
5878;SDS011;2965;42.640;23.370;2023-06-19T16:38:08;6.60;;;6.30;;
5878;SDS011;2965;42.640;23.370;2023-06-19T16:40:34;6.43;;;6.03;;
5878;SDS011;2965;42.640;23.370;2023-06-19T16:42:59;8.13;;;6.67;;
5878;SDS011;2965;42.640;23.370;2023-06-19T16:45:24;6.60;;;6.00;;
5878;SDS011;2965;42.640;23.370;2023-06-19T16:47:52;6.53;;;5.83;;
5878;SDS011;2965;42.640;23.370;2023-06-19T16:50:18;6.17;;;5.70;;
5878;SDS011;2965;42.640;23.370;2023-06-19T16:52:43;5.93;;;5.63;;
5878;SDS011;2965;42.640;23.370;2023-06-19T16:55:08;6.50;;;6.20;;
5878;SDS011;2965;42.640;23.370;2023-06-19T16:57:34;6.23;;;5.80;;
5878;SDS011;2965;42.640;23.370;2023-06-19T17:00:00;7.40;;;5.80;;
5878;SDS011;2965;42.640;23.370;2023-06-19T17:02:25;7.10;;;6.60;;
5878;SDS011;2965;42.640;23.370;2023-06-19T17:04:50;6.90;;;6.50;;
5878;SDS011;2965;42.640;23.370;2023-06-19T17:07:16;7.43;;;6.83;;
5878;SDS011;2965;42.640;23.370;2023-06-19T17:09:42;5.80;;;5.40;;
5878;SDS011;2965;42.640;23.370;2023-06-19T17:12:11;7.10;;;6.43;;
5878;SDS011;2965;42.640;23.370;2023-06-19T17:14:38;6.63;;;6.03;;
5878;SDS011;2965;42.640;23.370;2023-06-19T17:17:03;8.00;;;7.00;;
5878;SDS011;2965;42.640;23.370;2023-06-19T17:19:29;7.60;;;7.10;;
5878;SDS011;2965;42.640;23.370;2023-06-19T17:21:54;6.80;;;6.40;;
5878;SDS011;2965;42.640;23.370;2023-06-19T17:24:20;7.30;;;6.80;;
5878;SDS011;2965;42.640;23.370;2023-06-19T17:26:45;7.07;;;6.57;;
5878;SDS011;2965;42.640;23.370;2023-06-19T17:29:11;7.47;;;6.87;;
5878;SDS011;2965;42.640;23.370;2023-06-19T17:31:37;7.70;;;6.90;;
5878;SDS011;2965;42.640;23.370;2023-06-19T17:34:02;7.83;;;7.37;;
5878;SDS011;2965;42.640;23.370;2023-06-19T17:36:29;10.50;;;7.03;;
5878;SDS011;2965;42.640;23.370;2023-06-19T17:38:54;7.70;;;7.20;;
5878;SDS011;2965;42.640;23.370;2023-06-19T17:41:19;7.17;;;6.77;;
5878;SDS011;2965;42.640;23.370;2023-06-19T17:43:45;7.40;;;6.90;;
5878;SDS011;2965;42.640;23.370;2023-06-19T17:46:11;6.87;;;6.47;;
5878;SDS011;2965;42.640;23.370;2023-06-19T17:48:36;8.23;;;7.67;;
5878;SDS011;2965;42.640;23.370;2023-06-19T17:51:02;13.00;;;8.27;;
5878;SDS011;2965;42.640;23.370;2023-06-19T17:53:28;9.20;;;7.47;;
5878;SDS011;2965;42.640;23.370;2023-06-19T17:55:54;9.87;;;8.90;;
5878;SDS011;2965;42.640;23.370;2023-06-19T17:58:19;7.00;;;6.60;;
5878;SDS011;2965;42.640;23.370;2023-06-19T18:00:46;9.53;;;7.40;;
5878;SDS011;2965;42.640;23.370;2023-06-19T18:03:12;11.53;;;7.13;;
5878;SDS011;2965;42.640;23.370;2023-06-19T18:05:37;9.00;;;8.23;;
5878;SDS011;2965;42.640;23.370;2023-06-19T18:08:02;9.00;;;8.10;;
5878;SDS011;2965;42.640;23.370;2023-06-19T18:10:28;13.97;;;8.67;;
5878;SDS011;2965;42.640;23.370;2023-06-19T18:12:53;8.23;;;7.43;;
5878;SDS011;2965;42.640;23.370;2023-06-19T18:15:19;8.07;;;7.47;;
5878;SDS011;2965;42.640;23.370;2023-06-19T18:17:44;10.80;;;9.70;;
5878;SDS011;2965;42.640;23.370;2023-06-19T18:20:10;9.37;;;8.37;;
5878;SDS011;2965;42.640;23.370;2023-06-19T18:22:36;9.40;;;8.53;;
5878;SDS011;2965;42.640;23.370;2023-06-19T18:25:03;10.33;;;7.83;;
5878;SDS011;2965;42.640;23.370;2023-06-19T18:27:28;8.13;;;7.53;;
5878;SDS011;2965;42.640;23.370;2023-06-19T18:29:54;8.10;;;7.50;;
5878;SDS011;2965;42.640;23.370;2023-06-19T18:32:19;8.20;;;7.63;;
5878;SDS011;2965;42.640;23.370;2023-06-19T18:34:45;16.23;;;7.40;;
5878;SDS011;2965;42.640;23.370;2023-06-19T18:37:10;9.67;;;8.50;;
5878;SDS011;2965;42.640;23.370;2023-06-19T18:39:35;7.90;;;7.30;;
5878;SDS011;2965;42.640;23.370;2023-06-19T18:42:02;15.73;;;7.50;;
5878;SDS011;2965;42.640;23.370;2023-06-19T18:44:28;9.53;;;8.83;;
5878;SDS011;2965;42.640;23.370;2023-06-19T18:46:53;8.70;;;7.97;;
5878;SDS011;2965;42.640;23.370;2023-06-19T18:49:18;20.57;;;8.70;;
5878;SDS011;2965;42.640;23.370;2023-06-19T18:51:44;9.90;;;7.90;;
5878;SDS011;2965;42.640;23.370;2023-06-19T18:54:09;10.17;;;7.60;;
5878;SDS011;2965;42.640;23.370;2023-06-19T18:56:35;8.90;;;8.20;;
5878;SDS011;2965;42.640;23.370;2023-06-19T18:59:00;9.13;;;8.33;;
5878;SDS011;2965;42.640;23.370;2023-06-19T19:01:26;12.07;;;8.10;;
5878;SDS011;2965;42.640;23.370;2023-06-19T19:03:51;8.77;;;7.97;;
5878;SDS011;2965;42.640;23.370;2023-06-19T19:06:16;15.47;;;8.50;;
5878;SDS011;2965;42.640;23.370;2023-06-19T19:08:42;9.67;;;8.70;;
5878;SDS011;2965;42.640;23.370;2023-06-19T19:11:07;9.70;;;8.80;;
5878;SDS011;2965;42.640;23.370;2023-06-19T19:13:32;9.67;;;8.80;;
5878;SDS011;2965;42.640;23.370;2023-06-19T19:15:58;10.37;;;8.67;;
5878;SDS011;2965;42.640;23.370;2023-06-19T19:18:23;16.57;;;9.97;;
5878;SDS011;2965;42.640;23.370;2023-06-19T19:20:48;10.23;;;8.80;;
5878;SDS011;2965;42.640;23.370;2023-06-19T19:23:14;12.30;;;9.90;;
5878;SDS011;2965;42.640;23.370;2023-06-19T19:25:39;10.93;;;9.83;;
5878;SDS011;2965;42.640;23.370;2023-06-19T19:28:04;11.13;;;10.03;;
5878;SDS011;2965;42.640;23.370;2023-06-19T19:30:30;10.63;;;9.53;;
5878;SDS011;2965;42.640;23.370;2023-06-19T19:32:55;9.87;;;8.87;;
5878;SDS011;2965;42.640;23.370;2023-06-19T19:35:21;10.90;;;10.00;;
5878;SDS011;2965;42.640;23.370;2023-06-19T19:37:46;10.30;;;9.30;;
5878;SDS011;2965;42.640;23.370;2023-06-19T19:40:12;12.93;;;8.30;;
5878;SDS011;2965;42.640;23.370;2023-06-19T19:42:37;10.47;;;9.37;;
5878;SDS011;2965;42.640;23.370;2023-06-19T19:45:02;9.30;;;8.50;;
5878;SDS011;2965;42.640;23.370;2023-06-19T19:47:28;10.17;;;9.10;;
5878;SDS011;2965;42.640;23.370;2023-06-19T19:49:54;10.43;;;8.47;;
5878;SDS011;2965;42.640;23.370;2023-06-19T19:52:19;10.43;;;8.80;;
5878;SDS011;2965;42.640;23.370;2023-06-19T19:54:45;8.50;;;7.70;;
5878;SDS011;2965;42.640;23.370;2023-06-19T19:57:11;9.27;;;8.30;;
5878;SDS011;2965;42.640;23.370;2023-06-19T19:59:37;9.03;;;8.13;;
5878;SDS011;2965;42.640;23.370;2023-06-19T20:02:02;8.87;;;7.87;;
5878;SDS011;2965;42.640;23.370;2023-06-19T20:04:28;11.03;;;7.97;;
5878;SDS011;2965;42.640;23.370;2023-06-19T20:06:53;8.80;;;8.20;;
5878;SDS011;2965;42.640;23.370;2023-06-19T20:09:19;11.20;;;7.90;;
5878;SDS011;2965;42.640;23.370;2023-06-19T20:11:44;7.97;;;7.43;;
5878;SDS011;2965;42.640;23.370;2023-06-19T20:14:09;9.53;;;8.83;;
5878;SDS011;2965;42.640;23.370;2023-06-19T20:16:35;13.90;;;8.90;;
5878;SDS011;2965;42.640;23.370;2023-06-19T20:19:00;9.27;;;7.83;;
5878;SDS011;2965;42.640;23.370;2023-06-19T20:21:26;8.10;;;7.50;;
5878;SDS011;2965;42.640;23.370;2023-06-19T20:23:53;8.03;;;7.33;;
5878;SDS011;2965;42.640;23.370;2023-06-19T20:26:19;8.53;;;7.73;;
5878;SDS011;2965;42.640;23.370;2023-06-19T20:28:45;7.67;;;7.20;;
5878;SDS011;2965;42.640;23.370;2023-06-19T20:31:13;7.60;;;7.00;;
5878;SDS011;2965;42.640;23.370;2023-06-19T20:33:38;8.80;;;7.60;;
5878;SDS011;2965;42.640;23.370;2023-06-19T20:36:04;10.73;;;8.90;;
5878;SDS011;2965;42.640;23.370;2023-06-19T20:38:29;15.43;;;7.80;;
5878;SDS011;2965;42.640;23.370;2023-06-19T20:40:55;8.90;;;8.20;;
5878;SDS011;2965;42.640;23.370;2023-06-19T20:43:20;8.57;;;7.87;;
5878;SDS011;2965;42.640;23.370;2023-06-19T20:45:46;8.00;;;7.40;;
5878;SDS011;2965;42.640;23.370;2023-06-19T20:48:12;7.50;;;7.00;;
5878;SDS011;2965;42.640;23.370;2023-06-19T20:50:37;8.83;;;8.10;;
